Missoula, MT

2:11 AM MDT on July 30, 2016 (GMT -0600)
Coal Mine Road | | Change Station

Elev 3523 ft 46.91 °N, 114.01 °W | Updated 5 minutes ago

Clear
Clear
64.4 °F
Feels Like 64.4 °F
N
0.6
Wind Variable Wind from West
Gusts 1.2 mph

Today
High -- | Low -- °F
--% Chance of Precip.
Yesterday
High -- | Low -- °F
Precip. -- in
Pressure 29.80 in
Visibility 10.0 miles
Clouds Clear
Dew Point 49 °F
Humidity 57%
Rainfall Not available.
Snow Depth Not available.
6:13 AM 9:10 PM
Waning Crescent, 15% visible
METAR KMSO 300753Z AUTO 07005KT 10SM CLR 19/09 A2988 RMK AO2 SLP089 T01890094
Pressure 29.80 in
Visibility 10.0 miles
Clouds Clear
Dew Point 49 °F
Humidity 57%
Rainfall Not available.
Snow Depth Not available.
6:13 AM 9:10 PM
Waning Crescent, 15% visible
METAR KMSO 300753Z AUTO 07005KT 10SM CLR 19/09 A2988 RMK AO2 SLP089 T01890094

10-Day Weather Forecast

Almanac

Astronomy

Jul. 30, 2016 Rise Set
Actual Time
Civil Twilight
Nautical Twilight
Astronomical Twilight
Moon
Length of Visible Light
Length of Day
Tomorrow will be .
, % of the Moon is Illuminated

Today's Extremes

State Highs State Lows

Community

WunderPhotos

Upload Photos

1,928,508 photos uploaded!

WunderBlog® & News

Nearby

Air Quality

  Air Quality AQ Index Pollutant
Not available.

Snow Depth

Station Depth Elevation

Earthquake Activity

City Distance Mag. Time & Date
Minimum magnitude displayed is 2.5.

Coastal Water Temperatures

Place Temperature

Stations

Nearby Weather Stations

Station Location Temp. Windchill Dew Point Humidity Wind Precip. Elev Updated Type
                   

Watches & Warnings

There are currently no watches in effect.